Time;durP1;ratioP1;P1;durP2;ratioP2;P2;SDS_P1;SDS_P2;PMS_P1;PMS_P2;Temp;Humidity;BMP_temperature;BMP_pressure;BME280_temperature;BME280_humidity;BME280_pressure;Samples;Min_cycle;Max_cycle;Signal;HPM_P1;HPM_P2
2021/05/15 00:00:10;;;;;;;6.03;3.92;;;10.70;99.90;;;;;;4979685;28;20026;-75
2021/05/15 00:02:36;;;;;;;5.30;4.03;;;10.60;99.90;;;;;;4971845;28;20050;-74
2021/05/15 00:05:07;;;;;;;6.55;4.93;;;10.50;99.90;;;;;;4979175;28;20015;-76
2021/05/15 00:07:32;;;;;;;5.63;4.15;;;10.50;99.90;;;;;;4976694;28;20369;-74
2021/05/15 00:09:58;;;;;;;6.53;4.78;;;10.50;99.90;;;;;;4977258;28;20105;-74
2021/05/15 00:12:24;;;;;;;7.47;4.72;;;10.40;99.90;;;;;;4974689;28;20054;-74
2021/05/15 00:14:51;;;;;;;6.07;4.50;;;10.30;99.90;;;;;;4975207;28;20043;-76
2021/05/15 00:17:16;;;;;;;7.53;5.90;;;10.20;99.90;;;;;;4977671;28;20027;-75
2021/05/15 00:19:42;;;;;;;6.97;5.30;;;10.30;99.90;;;;;;4979118;28;20027;-73
2021/05/15 00:22:07;;;;;;;6.90;5.30;;;10.20;99.90;;;;;;4980781;28;20083;-75
2021/05/15 00:24:33;;;;;;;9.07;5.10;;;10.10;99.90;;;;;;4973708;28;20089;-75
2021/05/15 00:26:58;;;;;;;6.20;4.95;;;10.10;99.90;;;;;;4976861;28;20485;-75
2021/05/15 00:29:24;;;;;;;7.20;5.65;;;10.10;99.90;;;;;;4978764;28;20046;-75
2021/05/15 00:31:49;;;;;;;8.15;5.57;;;10.10;99.90;;;;;;4978113;28;20030;-75
2021/05/15 00:34:15;;;;;;;8.85;6.30;;;10.00;99.90;;;;;;4976204;28;20030;-75
2021/05/15 00:36:40;;;;;;;8.93;5.70;;;10.10;99.90;;;;;;4973629;28;20113;-75
2021/05/15 00:39:07;;;;;;;8.07;5.43;;;10.00;99.90;;;;;;4979807;28;20473;-75
2021/05/15 00:41:33;;;;;;;8.77;5.32;;;9.90;99.90;;;;;;4973199;28;20023;-75
2021/05/15 00:47:03;;;;;;;9.57;5.18;;;9.70;99.90;;;;;;4949652;28;20043;-75
2021/05/15 00:49:29;;;;;;;6.97;5.70;;;9.70;99.90;;;;;;4973953;28;20029;-74
2021/05/15 00:51:54;;;;;;;5.88;4.53;;;9.70;99.90;;;;;;4971809;28;20138;-75
2021/05/15 00:54:20;;;;;;;5.97;4.82;;;9.60;99.90;;;;;;4971335;28;20081;-75
2021/05/15 00:56:46;;;;;;;7.93;5.25;;;9.50;99.90;;;;;;4972404;28;20139;-75
2021/05/15 00:59:11;;;;;;;7.68;5.63;;;9.60;99.90;;;;;;4972580;28;20033;-75
2021/05/15 01:01:37;;;;;;;7.85;6.10;;;9.60;99.90;;;;;;4972557;28;20019;-75
2021/05/15 01:04:03;;;;;;;7.45;5.82;;;9.50;99.90;;;;;;4973142;28;20034;-75
2021/05/15 01:06:28;;;;;;;6.47;5.10;;;9.50;99.90;;;;;;4972711;28;20112;-75
2021/05/15 01:08:54;;;;;;;7.13;5.82;;;;;;;;;;4973663;28;20090;-75
2021/05/15 01:11:21;;;;;;;8.30;5.35;;;9.40;99.90;;;;;;4974356;28;20054;-76
2021/05/15 01:13:51;;;;;;;8.60;5.68;;;9.40;99.90;;;;;;4974148;28;20125;-75
2021/05/15 01:16:17;;;;;;;7.78;5.25;;;9.30;99.90;;;;;;4977101;28;20022;-76
2021/05/15 01:18:43;;;;;;;6.47;5.30;;;9.30;99.90;;;;;;4979164;28;20023;-75
2021/05/15 01:21:09;;;;;;;7.60;5.30;;;9.20;99.90;;;;;;4980554;28;20023;-75
2021/05/15 01:23:35;;;;;;;6.47;5.22;;;9.20;99.90;;;;;;4978828;28;20054;-76
2021/05/15 01:26:12;;;;;;;8.10;5.05;;;9.20;99.90;;;;;;4980328;28;20042;-76
2021/05/15 01:28:37;;;;;;;6.60;5.13;;;9.20;99.90;;;;;;4971417;28;20023;-75
2021/05/15 01:31:03;;;;;;;6.40;5.45;;;9.20;99.90;;;;;;4972094;28;20084;-76
2021/05/15 01:33:28;;;;;;;8.82;5.20;;;9.20;99.90;;;;;;4971225;28;20059;-76
2021/05/15 01:35:55;;;;;;;7.20;4.88;;;;;;;;;;4972450;28;20058;-75
2021/05/15 01:38:21;;;;;;;6.45;4.72;;;9.20;99.90;;;;;;4972408;28;20046;-75
2021/05/15 01:40:46;;;;;;;7.22;4.70;;;9.10;99.90;;;;;;4971795;28;20015;-74
2021/05/15 01:43:18;;;;;;;6.55;4.75;;;9.10;99.90;;;;;;4968873;28;20389;-74
2021/05/15 01:45:44;;;;;;;7.50;4.50;;;9.10;99.90;;;;;;4971955;28;20031;-74
2021/05/15 01:48:17;;;;;;;6.47;4.45;;;9.00;99.90;;;;;;4970843;28;20034;-75
2021/05/15 01:50:57;;;;;;;7.45;6.07;;;9.00;99.90;;;;;;4971484;28;20034;-74
2021/05/15 01:53:24;;;;;;;5.85;4.70;;;9.00;99.90;;;;;;4972021;28;20101;-74
2021/05/15 01:55:50;;;;;;;6.47;5.00;;;9.00;99.90;;;;;;4971939;28;20048;-74
2021/05/15 01:58:16;;;;;;;9.25;5.47;;;8.90;99.90;;;;;;4971152;28;20117;-75
2021/05/15 02:00:41;;;;;;;7.10;5.38;;;9.00;99.90;;;;;;4964821;28;20451;-74
2021/05/15 02:03:06;;;;;;;8.45;5.55;;;8.90;99.90;;;;;;4970158;28;20034;-75
2021/05/15 02:05:32;;;;;;;6.57;4.85;;;8.90;99.90;;;;;;4971737;28;20382;-74
2021/05/15 02:07:57;;;;;;;8.50;4.82;;;8.90;99.90;;;;;;4971934;28;20041;-74
2021/05/15 02:10:23;;;;;;;7.70;4.75;;;8.90;99.90;;;;;;4971621;28;20444;-74
2021/05/15 02:12:49;;;;;;;10.00;5.63;;;8.90;99.90;;;;;;4973473;28;20023;-74
2021/05/15 02:15:14;;;;;;;7.82;5.00;;;8.90;99.90;;;;;;4972475;28;20342;-75
2021/05/15 02:17:40;;;;;;;8.18;5.40;;;8.80;99.90;;;;;;4971409;28;20208;-74
2021/05/15 02:20:06;;;;;;;8.30;5.28;;;8.80;99.90;;;;;;4971684;28;20026;-74
2021/05/15 02:22:31;;;;;;;8.98;5.97;;;8.80;99.90;;;;;;4968209;28;20073;-74
2021/05/15 02:24:57;;;;;;;8.10;5.25;;;8.90;99.90;;;;;;4973786;28;20030;-74
2021/05/15 02:27:22;;;;;;;8.93;5.40;;;8.90;99.90;;;;;;4978150;28;20046;-74
2021/05/15 02:29:48;;;;;;;6.38;4.88;;;8.90;99.90;;;;;;4976502;28;20027;-75
2021/05/15 02:32:13;;;;;;;7.93;5.40;;;8.80;99.90;;;;;;4974498;28;20377;-75
2021/05/15 02:34:39;;;;;;;8.65;5.47;;;8.80;99.90;;;;;;4974053;28;20035;-75
2021/05/15 02:37:04;;;;;;;7.80;5.32;;;8.80;99.90;;;;;;4969882;28;20504;-74
2021/05/15 02:39:30;;;;;;;8.55;5.55;;;8.80;99.90;;;;;;4971350;28;20029;-74
2021/05/15 02:41:55;;;;;;;6.30;4.80;;;8.80;99.90;;;;;;4971202;28;20113;-74
2021/05/15 02:44:21;;;;;;;5.95;4.53;;;8.80;99.90;;;;;;4971701;28;20493;-76
2021/05/15 02:46:46;;;;;;;7.30;5.47;;;8.80;99.90;;;;;;4972262;28;20103;-74
2021/05/15 02:49:12;;;;;;;9.43;4.53;;;8.80;99.90;;;;;;4968123;28;20031;-75
2021/05/15 02:51:37;;;;;;;7.30;4.65;;;8.80;99.90;;;;;;4971000;28;20023;-74
2021/05/15 02:54:03;;;;;;;6.30;4.60;;;8.80;99.90;;;;;;4970714;28;20505;-75
2021/05/15 02:56:29;;;;;;;5.97;4.63;;;8.70;99.90;;;;;;4971250;28;20031;-75
2021/05/15 02:58:54;;;;;;;6.25;4.57;;;8.70;99.90;;;;;;4970578;28;20489;-75
2021/05/15 03:01:20;;;;;;;5.75;4.68;;;8.70;99.90;;;;;;4967500;28;20490;-75
2021/05/15 03:03:46;;;;;;;5.93;4.07;;;8.70;99.90;;;;;;4970906;28;20481;-76
2021/05/15 03:06:12;;;;;;;9.50;4.90;;;8.70;99.90;;;;;;4970967;28;20042;-74
2021/05/15 03:08:37;;;;;;;6.18;4.68;;;8.70;99.90;;;;;;4971086;28;20031;-75
2021/05/15 03:11:03;;;;;;;5.78;4.40;;;8.70;99.90;;;;;;4967409;28;20034;-74
2021/05/15 03:13:28;;;;;;;5.68;4.55;;;8.70;99.90;;;;;;4970610;28;20034;-75
2021/05/15 03:15:54;;;;;;;6.32;4.40;;;8.60;99.90;;;;;;4970948;28;20019;-75
2021/05/15 03:18:19;;;;;;;7.22;5.22;;;8.60;99.90;;;;;;4971236;28;20389;-75
2021/05/15 03:20:45;;;;;;;5.40;4.70;;;8.60;99.90;;;;;;4966956;28;20078;-75
2021/05/15 03:23:12;;;;;;;6.53;4.70;;;8.60;99.90;;;;;;4971144;28;20034;-76
2021/05/15 03:25:37;;;;;;;6.75;5.07;;;8.60;99.90;;;;;;4971633;28;20034;-75
2021/05/15 03:28:03;;;;;;;7.25;4.20;;;8.60;99.90;;;;;;4971181;28;20477;-75
2021/05/15 03:30:29;;;;;;;7.20;5.18;;;8.60;99.90;;;;;;4972813;28;20039;-75
2021/05/15 03:32:54;;;;;;;6.00;5.15;;;8.60;99.90;;;;;;4972676;28;20073;-74
2021/05/15 03:35:20;;;;;;;8.20;5.72;;;8.70;99.90;;;;;;4977654;28;20084;-75
2021/05/15 03:37:45;;;;;;;8.13;6.65;;;8.70;99.90;;;;;;4975081;28;20029;-74
2021/05/15 03:40:12;;;;;;;9.00;6.60;;;8.60;99.90;;;;;;4978399;28;20082;-75
2021/05/15 03:42:38;;;;;;;8.45;6.00;;;8.60;99.90;;;;;;4972826;28;20552;-75
2021/05/15 03:45:04;;;;;;;9.07;6.85;;;;;;;;;;4974394;28;20042;-75
2021/05/15 03:47:30;;;;;;;11.88;6.75;;;8.70;99.90;;;;;;4972965;28;20031;-75
2021/05/15 03:49:55;;;;;;;7.63;5.88;;;8.60;99.90;;;;;;4972271;28;20449;-75
2021/05/15 03:52:21;;;;;;;7.82;5.70;;;8.60;99.90;;;;;;4970207;28;20639;-75
2021/05/15 03:54:47;;;;;;;9.40;6.22;;;8.60;99.90;;;;;;4972913;28;20057;-75
2021/05/15 03:57:12;;;;;;;6.70;5.53;;;8.70;99.90;;;;;;4971694;28;20030;-74
2021/05/15 03:59:38;;;;;;;9.48;5.85;;;8.70;99.90;;;;;;4973084;28;20082;-74
2021/05/15 04:02:06;;;;;;;7.20;5.43;;;8.70;99.90;;;;;;4972540;28;20393;-74
2021/05/15 04:04:34;;;;;;;8.95;5.80;;;8.60;99.90;;;;;;4969822;28;20039;-74
2021/05/15 04:06:59;;;;;;;7.55;4.95;;;8.60;99.90;;;;;;4970709;28;20054;-74
2021/05/15 04:09:25;;;;;;;8.68;5.30;;;8.70;99.90;;;;;;4971491;28;20055;-75
2021/05/15 04:11:51;;;;;;;6.85;4.82;;;8.70;99.90;;;;;;4972493;28;20027;-74
2021/05/15 04:16:59;;;;;;;7.38;5.63;;;8.90;99.90;;;;;;4973609;28;20481;-75
2021/05/15 04:19:26;;;;;;;6.65;5.32;;;8.90;99.90;;;;;;4974310;28;20053;-75
2021/05/15 04:21:52;;;;;;;7.07;5.53;;;9.00;99.90;;;;;;4975789;28;20034;-75
2021/05/15 04:24:17;;;;;;;6.85;5.75;;;9.00;99.90;;;;;;4972115;28;20031;-75
2021/05/15 04:26:43;;;;;;;8.00;5.13;;;9.00;99.90;;;;;;4974194;28;20062;-75
2021/05/15 04:29:08;;;;;;;7.93;5.95;;;9.10;99.90;;;;;;4972890;28;20066;-75
2021/05/15 04:31:34;;;;;;;6.53;5.68;;;9.10;99.90;;;;;;4976767;28;20030;-75
2021/05/15 04:33:59;;;;;;;6.50;5.47;;;9.10;99.90;;;;;;4973109;28;20034;-75
2021/05/15 04:36:25;;;;;;;12.18;6.28;;;9.20;99.90;;;;;;4973435;28;20565;-75
2021/05/15 04:38:52;;;;;;;7.15;5.25;;;9.30;99.90;;;;;;4974810;28;20073;-76
2021/05/15 04:41:19;;;;;;;7.88;6.32;;;9.30;99.90;;;;;;4974580;28;20054;-74
2021/05/15 04:43:44;;;;;;;6.55;4.70;;;9.40;99.90;;;;;;4970005;28;20034;-75
2021/05/15 04:46:10;;;;;;;7.97;5.70;;;9.40;99.90;;;;;;4973411;28;20035;-74
2021/05/15 04:48:37;;;;;;;9.43;5.65;;;9.40;99.90;;;;;;4973541;28;20074;-74
2021/05/15 04:51:03;;;;;;;9.48;6.28;;;9.40;99.90;;;;;;4973315;28;20031;-74
2021/05/15 04:53:30;;;;;;;6.57;5.00;;;9.40;99.90;;;;;;4973539;28;20060;-75
2021/05/15 04:55:55;;;;;;;19.15;5.90;;;9.40;99.90;;;;;;4970078;28;20023;-75
2021/05/15 04:58:21;;;;;;;9.57;5.50;;;9.50;99.90;;;;;;4971558;28;20110;-75
2021/05/15 05:00:47;;;;;;;7.50;5.50;;;9.50;99.90;;;;;;4973016;28;20604;-75
2021/05/15 05:03:16;;;;;;;6.70;5.65;;;9.50;99.90;;;;;;4972574;28;20094;-75
2021/05/15 05:05:42;;;;;;;8.73;5.97;;;9.70;99.90;;;;;;4974027;28;20077;-75
2021/05/15 05:08:07;;;;;;;7.72;6.55;;;9.70;99.90;;;;;;4970451;28;20031;-74
2021/05/15 05:10:33;;;;;;;8.25;5.53;;;9.80;99.90;;;;;;4973940;28;20389;-74
2021/05/15 05:13:05;;;;;;;9.73;6.10;;;9.90;99.90;;;;;;4973814;28;20026;-75
2021/05/15 05:15:31;;;;;;;7.47;5.47;;;10.00;99.90;;;;;;4978724;28;20039;-74
2021/05/15 05:17:57;;;;;;;6.63;5.07;;;10.20;99.90;;;;;;4975649;28;20051;-75
2021/05/15 05:20:23;;;;;;;6.72;5.32;;;10.60;99.90;;;;;;4974804;28;20113;-76
2021/05/15 05:22:50;;;;;;;9.23;6.07;;;10.70;99.90;;;;;;4971226;28;20367;-75
2021/05/15 05:25:17;;;;;;;5.93;5.22;;;11.20;99.90;;;;;;4974703;28;20393;-75
2021/05/15 05:27:48;;;;;;;7.47;6.10;;;11.30;99.90;;;;;;4975383;28;20053;-74
2021/05/15 05:30:16;;;;;;;5.88;5.13;;;11.50;99.90;;;;;;4971653;28;20110;-75
2021/05/15 05:32:51;;;;;;;6.15;5.55;;;11.80;99.90;;;;;;4975778;28;20029;-75
2021/05/15 05:35:18;;;;;;;7.07;5.53;;;12.20;99.90;;;;;;4973622;28;20094;-75
2021/05/15 05:40:53;;;;;;;6.68;5.50;;;12.20;99.90;;;;;;4971618;28;20097;-74
2021/05/15 05:43:19;;;;;;;6.70;4.90;;;12.10;99.90;;;;;;4975108;28;20023;-75
2021/05/15 05:45:44;;;;;;;8.30;5.90;;;12.10;99.90;;;;;;4978543;28;20034;-75
2021/05/15 05:48:10;;;;;;;6.60;5.88;;;12.30;99.90;;;;;;4983152;28;20027;-75
2021/05/15 05:50:36;;;;;;;7.70;6.18;;;12.30;99.90;;;;;;4980889;28;20019;-75
2021/05/15 05:53:01;;;;;;;7.78;6.05;;;12.50;99.90;;;;;;4980765;28;20039;-75
2021/05/15 05:55:26;;;;;;;8.15;6.60;;;12.70;99.90;;;;;;4976290;28;20027;-75
2021/05/15 05:57:52;;;;;;;7.72;6.35;;;12.60;99.90;;;;;;4974477;28;20121;-75
2021/05/15 06:00:18;;;;;;;7.72;6.85;;;12.60;99.90;;;;;;4980138;28;20023;-75
2021/05/15 06:02:44;;;;;;;11.73;8.55;;;12.60;99.90;;;;;;4975574;28;20058;-75
2021/05/15 06:05:10;;;;;;;11.52;9.95;;;12.70;99.90;;;;;;4978208;28;20492;-75
2021/05/15 06:07:35;;;;;;;14.68;10.60;;;12.90;99.90;;;;;;4975553;28;20019;-75
2021/05/15 06:10:01;;;;;;;11.10;9.00;;;13.00;99.90;;;;;;4981632;28;20489;-75
2021/05/15 06:12:26;;;;;;;13.13;10.30;;;13.10;99.90;;;;;;4980214;28;20137;-75
2021/05/15 06:14:52;;;;;;;11.15;9.93;;;13.20;99.90;;;;;;4980177;28;20031;-75
2021/05/15 06:17:18;;;;;;;11.98;10.27;;;13.20;99.90;;;;;;4978929;28;20393;-75
2021/05/15 06:19:44;;;;;;;11.77;9.68;;;13.30;99.90;;;;;;4979703;28;20030;-74
2021/05/15 06:22:11;;;;;;;10.98;9.27;;;13.50;99.90;;;;;;4975386;28;20034;-75
2021/05/15 06:24:40;;;;;;;11.85;9.63;;;13.50;99.90;;;;;;4974297;28;20062;-75
2021/05/15 06:27:07;;;;;;;12.80;9.85;;;13.60;99.90;;;;;;4974988;28;20050;-75
2021/05/15 06:29:34;;;;;;;11.85;9.88;;;13.80;99.90;;;;;;4975986;28;20054;-74
2021/05/15 06:32:00;;;;;;;10.15;9.15;;;14.10;99.90;;;;;;4974852;28;20042;-75
2021/05/15 06:34:26;;;;;;;10.75;8.38;;;14.00;99.90;;;;;;4972365;28;20034;-75
2021/05/15 06:36:51;;;;;;;11.50;8.82;;;14.60;99.90;;;;;;4972207;28;20023;-75
2021/05/15 06:39:17;;;;;;;11.32;9.63;;;14.90;99.90;;;;;;4971739;28;20081;-75
2021/05/15 06:41:45;;;;;;;12.65;10.82;;;15.90;99.90;;;;;;4972945;28;20081;-75
2021/05/15 06:44:11;;;;;;;10.82;9.70;;;18.10;99.90;;;;;;4970552;28;20043;-75
2021/05/15 06:46:36;;;;;;;9.52;7.60;;;18.40;99.70;;;;;;4973478;28;20442;-76
2021/05/15 06:49:02;;;;;;;8.25;7.15;;;18.70;96.00;;;;;;4970789;28;20509;-76
2021/05/15 06:51:29;;;;;;;7.78;7.00;;;19.50;95.00;;;;;;4972518;28;20029;-76
2021/05/15 06:53:55;;;;;;;8.63;6.47;;;20.30;90.20;;;;;;4972415;28;20389;-75
2021/05/15 06:56:20;;;;;;;8.45;6.53;;;20.30;88.00;;;;;;4970789;28;20019;-77
2021/05/15 06:58:46;;;;;;;8.32;6.78;;;21.00;82.10;;;;;;4970937;28;20034;-76
2021/05/15 07:01:12;;;;;;;8.13;7.32;;;21.40;78.70;;;;;;4965408;28;20053;-75
2021/05/15 07:03:37;;;;;;;7.22;6.53;;;22.20;73.70;;;;;;4963576;28;20518;-74
2021/05/15 07:06:04;;;;;;;7.78;7.05;;;23.10;70.20;;;;;;4963097;28;20435;-75
2021/05/15 07:08:30;;;;;;;6.88;6.18;;;24.20;65.40;;;;;;4959864;28;20421;-81
2021/05/15 07:10:55;;;;;;;7.18;6.07;;;24.40;61.20;;;;;;4967088;28;20027;-80
2021/05/15 07:13:21;;;;;;;6.80;6.10;;;22.40;64.90;;;;;;4967083;28;20038;-72
2021/05/15 07:15:46;;;;;;;7.07;6.40;;;22.30;66.30;;;;;;4966412;28;20034;-72
2021/05/15 07:18:12;;;;;;;6.60;6.00;;;22.30;66.00;;;;;;4965933;28;20093;-74
2021/05/15 07:20:37;;;;;;;7.05;6.45;;;22.40;66.30;;;;;;4963954;28;20023;-74
2021/05/15 07:23:07;;;;;;;8.02;7.32;;;22.60;66.90;;;;;;4961355;28;20061;-76
2021/05/15 07:25:33;;;;;;;8.38;7.55;;;23.40;64.60;;;;;;4965145;28;20051;-73
2021/05/15 07:27:58;;;;;;;8.63;7.72;;;24.30;60.80;;;;;;4967261;28;20031;-73
2021/05/15 07:30:24;;;;;;;7.25;6.55;;;25.20;59.10;;;;;;4969168;28;20073;-73
2021/05/15 07:32:49;;;;;;;6.95;5.85;;;24.70;59.20;;;;;;4966593;28;20019;-74
2021/05/15 07:35:15;;;;;;;6.38;5.78;;;24.70;59.00;;;;;;4963958;28;20022;-74
2021/05/15 07:37:40;;;;;;;6.05;5.55;;;24.10;58.70;;;;;;4965569;28;20375;-75
2021/05/15 07:40:06;;;;;;;7.18;6.50;;;24.60;58.20;;;;;;4964399;28;20355;-75
2021/05/15 07:42:32;;;;;;;6.65;6.03;;;24.30;58.40;;;;;;4964336;28;20027;-77
2021/05/15 07:44:57;;;;;;;6.47;5.88;;;24.50;57.70;;;;;;4962379;28;20073;-74
2021/05/15 07:47:25;;;;;;;7.65;6.82;;;24.20;58.50;;;;;;4965792;28;20070;-72
2021/05/15 07:49:50;;;;;;;7.68;6.97;;;24.80;56.60;;;;;;4970069;28;20073;-72
2021/05/15 07:52:16;;;;;;;7.43;6.60;;;25.00;55.50;;;;;;4968056;28;20063;-74
2021/05/15 07:54:41;;;;;;;7.55;6.22;;;25.40;55.10;;;;;;4965918;28;20126;-74
2021/05/15 07:57:12;;;;;;;7.00;6.15;;;25.80;53.80;;;;;;4966305;28;20019;-74
2021/05/15 07:59:37;;;;;;;6.85;6.15;;;26.00;53.70;;;;;;4970607;28;20058;-76
2021/05/15 08:02:03;;;;;;;7.50;6.88;;;25.30;54.30;;;;;;4971049;28;20427;-76
2021/05/15 08:04:28;;;;;;;6.25;5.72;;;26.60;51.70;;;;;;4973367;28;20023;-76
2021/05/15 08:06:54;;;;;;;5.70;5.15;;;26.60;52.00;;;;;;4971809;28;20034;-76
2021/05/15 08:09:19;;;;;;;6.70;6.00;;;25.80;52.10;;;;;;4972383;28;20485;-76
2021/05/15 08:11:45;;;;;;;6.50;5.88;;;25.50;53.10;;;;;;4970310;28;20038;-75
2021/05/15 08:14:11;;;;;;;6.85;6.03;;;26.30;52.20;;;;;;4973091;28;20030;-75
2021/05/15 08:16:36;;;;;;;7.38;6.68;;;26.10;52.50;;;;;;4971154;28;20035;-77
2021/05/15 08:19:03;;;;;;;6.80;6.22;;;26.10;51.90;;;;;;4969790;28;20030;-76
2021/05/15 08:21:29;;;;;;;7.55;6.70;;;26.30;52.40;;;;;;4972682;28;20026;-75
2021/05/15 08:23:54;;;;;;;7.03;6.25;;;25.30;53.30;;;;;;4968456;28;20109;-77
2021/05/15 08:26:20;;;;;;;6.93;6.32;;;25.40;53.60;;;;;;4965437;28;20162;-79
2021/05/15 08:28:49;;;;;;;7.68;6.88;;;25.50;53.60;;;;;;4969398;28;20031;-79
2021/05/15 08:31:15;;;;;;;7.47;6.78;;;25.80;52.70;;;;;;4967637;28;20037;-79
2021/05/15 08:33:40;;;;;;;9.32;7.50;;;25.60;52.70;;;;;;4963591;28;20031;-80
2021/05/15 08:36:08;;;;;;;7.55;6.80;;;26.00;52.40;;;;;;4965866;28;20382;-79
2021/05/15 08:38:33;;;;;;;7.25;6.63;;;27.10;51.00;;;;;;4968243;28;20109;-79
2021/05/15 08:40:59;;;;;;;7.07;6.32;;;27.20;50.50;;;;;;4967311;28;20389;-76
2021/05/15 08:43:27;;;;;;;7.38;6.68;;;27.20;50.60;;;;;;4967748;28;20548;-75
2021/05/15 08:45:55;;;;;;;8.48;7.60;;;26.40;52.10;;;;;;4976475;28;20195;-75
2021/05/15 08:48:24;;;;;;;8.68;7.78;;;;;;;;;;4965112;28;20141;-74
2021/05/15 08:50:51;;;;;;;7.95;7.25;;;25.50;52.20;;;;;;4970175;28;20089;-75
2021/05/15 08:53:17;;;;;;;7.78;6.97;;;25.30;53.00;;;;;;4968768;28;20097;-75
2021/05/15 08:55:44;;;;;;;8.27;7.30;;;26.20;52.20;;;;;;4969950;28;20389;-75
2021/05/15 08:58:09;;;;;;;8.60;7.30;;;27.50;50.80;;;;;;4969354;28;20023;-77
2021/05/15 09:00:41;;;;;;;7.75;7.05;;;28.50;48.80;;;;;;4966626;28;20053;-76
2021/05/15 09:03:11;;;;;;;9.18;8.07;;;28.40;47.50;;;;;;4960133;28;20213;-78
2021/05/15 09:05:40;;;;;;;6.25;5.65;;;27.40;49.30;;;;;;4965996;28;20503;-77
2021/05/15 09:08:09;;;;;;;7.22;6.53;;;26.90;50.10;;;;;;4961210;28;20038;-77
2021/05/15 09:10:39;;;;;;;6.65;6.07;;;25.60;51.80;;;;;;4967420;28;20041;-76
2021/05/15 09:13:18;;;;;;;6.90;6.20;;;26.30;51.20;;;;;;4966004;28;20082;-76
2021/05/15 09:15:58;;;;;;;8.55;7.75;;;27.70;49.50;;;;;;4953624;28;20058;-75
2021/05/15 09:18:25;;;;;;;;;;;26.40;51.20;;;;;;4966466;28;20027;-76
2021/05/15 09:20:53;;;;;;;7.38;6.68;;;25.80;51.60;;;;;;4966525;28;20305;-78
2021/05/15 09:23:23;;;;;;;7.32;6.72;;;25.60;52.20;;;;;;4966520;28;20034;-76
2021/05/15 09:25:59;;;;;;;6.57;5.97;;;25.60;52.30;;;;;;4969136;28;20489;-72
2021/05/15 09:28:36;;;;;;;5.28;4.78;;;25.80;51.20;;;;;;4969404;28;20030;-73
2021/05/15 09:31:32;;;;;;;5.20;4.70;;;24.90;50.90;;;;;;4970523;28;20498;-73
2021/05/15 09:34:05;;;;;;;5.82;4.82;;;24.70;51.10;;;;;;4958726;28;20401;-73
2021/05/15 09:36:39;;;;;;;5.65;5.05;;;25.30;51.30;;;;;;4967120;28;20030;-74
2021/05/15 09:39:09;;;;;;;4.70;4.15;;;25.10;50.40;;;;;;4969530;28;20031;-73
2021/05/15 09:41:57;;;;;;;5.90;5.30;;;24.10;52.20;;;;;;4968554;28;20035;-74
2021/05/15 09:44:30;;;;;;;9.85;8.38;;;24.10;53.00;;;;;;4967336;28;20294;-74
2021/05/15 09:46:57;;;;;;;7.05;6.35;;;25.10;51.70;;;;;;4967390;28;20035;-74
2021/05/15 09:49:27;;;;;;;6.82;6.22;;;25.10;51.70;;;;;;4974823;28;20027;-74
2021/05/15 09:52:00;;;;;;;7.30;6.40;;;24.30;53.10;;;;;;4968131;28;20074;-73
2021/05/15 09:54:28;;;;;;;7.32;5.40;;;22.50;56.40;;;;;;4970682;28;20038;-73
2021/05/15 09:57:07;;;;;;;6.75;5.80;;;21.60;58.50;;;;;;4974346;28;20031;-72
2021/05/15 09:59:44;;;;;;;7.60;5.20;;;20.20;60.90;;;;;;4974580;28;20022;-74
2021/05/15 10:02:12;;;;;;;7.13;6.43;;;20.10;61.60;;;;;;4973956;28;20030;-73
2021/05/15 10:04:40;;;;;;;6.50;5.28;;;20.40;62.80;;;;;;4966291;28;20031;-75
2021/05/15 10:07:15;;;;;;;6.10;5.47;;;21.90;60.60;;;;;;4963131;28;20035;-74
2021/05/15 10:09:41;;;;;;;7.93;5.10;;;23.10;56.50;;;;;;4966775;28;20058;-73
2021/05/15 10:12:06;;;;;;;5.35;4.45;;;22.30;57.40;;;;;;4966951;28;20027;-74
2021/05/15 10:14:33;;;;;;;6.05;5.50;;;21.50;58.70;;;;;;4971455;28;20026;-74
2021/05/15 10:16:59;;;;;;;7.15;3.50;;;20.90;60.10;;;;;;4976454;28;20162;-74
2021/05/15 10:19:25;;;;;;;3.60;3.10;;;20.60;59.30;;;;;;4977196;28;20073;-74
2021/05/15 10:21:51;;;;;;;4.13;3.15;;;20.30;59.40;;;;;;4978402;28;20034;-74
2021/05/15 10:24:24;;;;;;;3.58;2.70;;;20.40;60.00;;;;;;4978714;28;20062;-75
2021/05/15 10:27:03;;;;;;;4.13;3.10;;;21.10;58.30;;;;;;4973615;28;20061;-74
2021/05/15 10:29:40;;;;;;;4.93;2.95;;;22.00;56.70;;;;;;4970092;28;20042;-73
2021/05/15 10:32:15;;;;;;;3.25;2.63;;;24.00;52.40;;;;;;4966398;28;20029;-72
2021/05/15 10:34:45;;;;;;;3.63;2.80;;;23.80;53.00;;;;;;4967525;28;20022;-74
2021/05/15 10:37:18;;;;;;;3.30;2.97;;;24.20;52.50;;;;;;4971390;28;20029;-73
2021/05/15 10:39:45;;;;;;;4.22;2.90;;;24.50;51.50;;;;;;4964137;28;20037;-74
2021/05/15 10:42:11;;;;;;;4.25;3.05;;;24.00;51.70;;;;;;4962466;28;20025;-74
2021/05/15 10:44:42;;;;;;;3.33;2.83;;;22.70;53.40;;;;;;4963667;28;20034;-74
2021/05/15 10:47:08;;;;;;;3.10;2.17;;;21.40;55.00;;;;;;4971083;28;20042;-74
2021/05/15 10:49:34;;;;;;;3.38;2.15;;;21.40;55.60;;;;;;4968679;28;20493;-73
2021/05/15 10:52:13;;;;;;;3.58;2.72;;;21.40;56.70;;;;;;4965991;28;20846;-73
2021/05/15 10:54:42;;;;;;;2.10;1.90;;;22.70;53.80;;;;;;4964767;28;20047;-73
2021/05/15 10:57:13;;;;;;;3.00;1.95;;;24.00;51.20;;;;;;4966312;28;20022;-73
2021/05/15 10:59:54;;;;;;;2.75;2.08;;;25.10;49.00;;;;;;4967350;28;20037;-75
2021/05/15 11:02:22;;;;;;;2.28;1.80;;;24.90;49.60;;;;;;4963660;28;20023;-73
2021/05/15 11:04:53;;;;;;;3.95;2.53;;;25.50;47.50;;;;;;4965582;28;20026;-73
2021/05/15 11:07:35;;;;;;;2.78;2.03;;;25.10;48.10;;;;;;4965285;28;20027;-73
2021/05/15 11:10:04;;;;;;;1.73;1.42;;;25.10;48.90;;;;;;4967265;28;20109;-74
2021/05/15 11:12:39;;;;;;;3.15;2.55;;;24.90;48.80;;;;;;4969518;28;20102;-74
2021/05/15 11:15:09;;;;;;;4.03;2.17;;;24.00;50.60;;;;;;4968472;28;20063;-75
2021/05/15 11:17:34;;;;;;;2.08;1.88;;;23.60;51.50;;;;;;4969412;28;20030;-73
2021/05/15 11:20:19;;;;;;;6.05;3.78;;;23.60;51.80;;;;;;4969260;28;20031;-73
2021/05/15 11:22:54;;;;;;;3.85;2.70;;;23.90;51.00;;;;;;4969088;28;20082;-74
2021/05/15 11:25:27;;;;;;;2.88;2.05;;;23.30;52.30;;;;;;4971360;28;20077;-74
2021/05/15 11:28:03;;;;;;;13.40;11.95;;;22.70;53.20;;;;;;4974223;28;20158;-73
2021/05/15 11:30:41;;;;;;;2.55;1.75;;;22.50;54.10;;;;;;4974907;28;20034;-72
2021/05/15 11:33:11;;;;;;;3.88;2.20;;;22.40;53.30;;;;;;4973956;28;20035;-73
2021/05/15 11:35:36;;;;;;;1.95;1.50;;;23.70;51.90;;;;;;4973660;28;20030;-73
2021/05/15 11:38:19;;;;;;;1.58;1.20;;;24.30;51.40;;;;;;4973543;28;20786;-73
2021/05/15 11:40:45;;;;;;;3.33;1.60;;;23.80;51.20;;;;;;4968874;28;20023;-73
2021/05/15 11:43:11;;;;;;;4.82;2.63;;;23.40;51.00;;;;;;4988170;28;20366;-73
2021/05/15 11:45:37;;;;;;;5.03;2.95;;;22.60;52.70;;;;;;4973565;28;20199;-73
2021/05/15 11:48:06;;;;;;;3.50;1.65;;;21.70;54.70;;;;;;4982972;28;20023;-73
2021/05/15 11:50:32;;;;;;;4.10;1.88;;;21.40;57.40;;;;;;4979723;28;20034;-76
2021/05/15 11:53:02;;;;;;;5.10;2.40;;;22.00;57.50;;;;;;4980285;28;20027;-72
2021/05/15 11:55:29;;;;;;;2.20;1.85;;;23.60;54.50;;;;;;4973150;28;20555;-73
2021/05/15 11:57:56;;;;;;;3.17;2.13;;;24.60;51.50;;;;;;4972954;28;20039;-72
2021/05/15 12:00:26;;;;;;;2.63;2.15;;;25.10;50.10;;;;;;4973356;28;20460;-73
2021/05/15 12:02:51;;;;;;;6.18;1.50;;;25.10;50.00;;;;;;4972631;28;20026;-74
2021/05/15 12:05:18;;;;;;;3.17;2.53;;;25.30;50.90;;;;;;4973145;28;20049;-74
2021/05/15 12:07:54;;;;;;;1.92;1.58;;;26.00;49.90;;;;;;4971991;28;20030;-74
2021/05/15 12:10:23;;;;;;;2.85;2.53;;;25.40;50.60;;;;;;4969501;28;20026;-74
2021/05/15 12:13:00;;;;;;;3.00;2.20;;;25.60;50.20;;;;;;4969867;28;20034;-73
2021/05/15 12:15:28;;;;;;;2.83;2.10;;;26.20;50.60;;;;;;4971291;28;20056;-72
2021/05/15 12:17:56;;;;;;;3.03;1.00;;;26.30;49.10;;;;;;4973003;28;20033;-73
2021/05/15 12:20:45;;;;;;;2.80;2.10;;;26.30;47.30;;;;;;4973181;28;20050;-72
2021/05/15 12:23:22;;;;;;;3.47;2.38;;;26.70;46.40;;;;;;4973201;28;20030;-72
2021/05/15 12:26:08;;;;;;;3.72;1.55;;;27.30;44.40;;;;;;4969998;28;20027;-73
2021/05/15 12:28:42;;;;;;;1.77;1.60;;;27.00;42.80;;;;;;4971155;28;20102;-73
2021/05/15 12:31:24;;;;;;;9.93;8.93;;;27.30;43.30;;;;;;4972034;28;20034;-72
2021/05/15 12:33:50;;;;;;;2.53;2.33;;;27.50;42.30;;;;;;4968309;28;20033;-76
2021/05/15 12:36:16;;;;;;;4.50;1.20;;;27.80;41.60;;;;;;4968754;28;20540;-74
2021/05/15 12:38:48;;;;;;;6.70;2.30;;;28.10;40.70;;;;;;4972860;28;20034;-75
2021/05/15 12:41:22;;;;;;;2.45;2.03;;;27.40;41.40;;;;;;4972641;28;20081;-73
2021/05/15 12:44:11;;;;;;;2.63;2.00;;;27.30;42.10;;;;;;4968020;28;20023;-74
2021/05/15 12:46:41;;;;;;;4.55;2.35;;;27.60;42.10;;;;;;4970851;28;20453;-73
2021/05/15 12:49:09;;;;;;;1.60;1.20;;;28.10;41.50;;;;;;4971184;28;20034;-74
2021/05/15 12:51:37;;;;;;;2.33;1.38;;;28.50;41.00;;;;;;4972043;28;20039;-75
2021/05/15 12:54:23;;;;;;;2.20;1.48;;;27.90;41.70;;;;;;4971553;28;20081;-74
2021/05/15 12:56:51;;;;;;;3.60;1.90;;;27.30;42.50;;;;;;4968190;28;20023;-73
2021/05/15 12:59:31;;;;;;;1.90;1.80;;;27.70;42.30;;;;;;4967507;28;20026;-75
2021/05/15 13:02:06;;;;;;;;;;;28.10;40.90;;;;;;4968726;28;20034;-73